createdAt,value
2019-01-27T00:01:31.185Z,6.47
2019-01-27T00:03:59.736Z,6.23
2019-01-27T00:06:29.390Z,5.00
2019-01-27T00:08:57.969Z,5.73
2019-01-27T00:11:28.694Z,5.53
2019-01-27T00:13:57.264Z,6.27
2019-01-27T00:16:25.793Z,6.60
2019-01-27T00:18:54.329Z,7.17
2019-01-27T00:21:22.906Z,6.30
2019-01-27T00:23:51.437Z,7.00
2019-01-27T00:26:19.970Z,7.50
2019-01-27T00:28:48.541Z,6.07
2019-01-27T00:31:17.102Z,6.97
2019-01-27T00:33:45.649Z,6.53
2019-01-27T00:36:14.208Z,7.87
2019-01-27T00:38:42.722Z,6.73
2019-01-27T00:41:11.241Z,6.77
2019-01-27T00:43:39.865Z,6.87
2019-01-27T00:46:08.415Z,7.17
2019-01-27T00:48:36.949Z,6.10
2019-01-27T00:51:05.522Z,6.27
2019-01-27T00:53:34.066Z,7.47
2019-01-27T00:56:02.613Z,6.33
2019-01-27T00:58:31.182Z,6.77
2019-01-27T01:01:18.893Z,7.00
2019-01-27T01:03:47.474Z,6.53
2019-01-27T01:06:16.045Z,7.00
2019-01-27T01:08:44.600Z,7.53
2019-01-27T01:11:13.165Z,6.87
2019-01-27T01:13:41.730Z,7.37
2019-01-27T01:16:10.270Z,7.17
2019-01-27T01:18:38.822Z,6.77
2019-01-27T01:21:07.369Z,6.87
2019-01-27T01:23:35.895Z,6.57
2019-01-27T01:26:04.422Z,5.97
2019-01-27T01:28:33.127Z,7.73
2019-01-27T01:31:01.657Z,6.93
2019-01-27T01:33:30.181Z,6.00
2019-01-27T01:35:58.747Z,5.77
2019-01-27T01:38:27.282Z,6.10
2019-01-27T01:40:55.813Z,5.83
2019-01-27T01:43:24.378Z,6.50
2019-01-27T01:45:52.953Z,5.87
2019-01-27T01:48:21.483Z,5.70
2019-01-27T01:50:50.046Z,6.50
2019-01-27T01:53:18.574Z,5.00
2019-01-27T01:55:47.133Z,5.70
2019-01-27T01:58:15.695Z,5.00
2019-01-27T02:00:44.249Z,5.63
2019-01-27T02:03:12.795Z,5.70
2019-01-27T02:05:41.405Z,5.70
2019-01-27T02:08:09.943Z,5.13
2019-01-27T02:10:57.666Z,4.97
2019-01-27T02:13:26.190Z,5.20
2019-01-27T02:16:07.643Z,4.90
2019-01-27T02:18:36.693Z,5.03
2019-01-27T02:21:05.425Z,5.03
2019-01-27T02:23:33.993Z,5.53
2019-01-27T02:26:02.530Z,5.27
2019-01-27T02:28:31.087Z,4.93
2019-01-27T02:30:59.715Z,4.97
2019-01-27T02:33:28.302Z,4.83
2019-01-27T02:35:56.871Z,5.07
2019-01-27T02:38:25.439Z,4.90
2019-01-27T02:40:53.985Z,4.63
2019-01-27T02:43:22.513Z,5.00
2019-01-27T02:45:51.079Z,3.80
2019-01-27T02:48:19.615Z,4.13
2019-01-27T02:50:48.166Z,4.87
2019-01-27T02:53:16.745Z,5.47
2019-01-27T02:55:45.312Z,5.17
2019-01-27T02:58:13.864Z,4.60
2019-01-27T03:00:42.425Z,5.63
2019-01-27T03:03:10.962Z,4.47
2019-01-27T03:05:58.573Z,4.37
2019-01-27T03:08:30.851Z,4.27
2019-01-27T03:10:59.403Z,3.90
2019-01-27T03:13:28.049Z,4.30
2019-01-27T03:15:56.582Z,3.83
2019-01-27T03:18:25.154Z,5.50
2019-01-27T03:20:53.685Z,5.43
2019-01-27T03:23:22.216Z,4.43
2019-01-27T03:25:50.852Z,4.57
2019-01-27T03:28:19.365Z,6.27
2019-01-27T03:30:47.903Z,4.63
2019-01-27T03:33:16.511Z,3.70
2019-01-27T03:35:45.034Z,4.40
2019-01-27T03:38:13.573Z,7.27
2019-01-27T03:40:42.163Z,3.97
2019-01-27T03:43:10.697Z,3.50
2019-01-27T03:45:39.226Z,3.90
2019-01-27T03:48:07.827Z,4.27
2019-01-27T03:50:36.362Z,3.83
2019-01-27T03:53:04.919Z,3.90
2019-01-27T03:55:33.502Z,3.80
2019-01-27T03:58:02.041Z,3.70
2019-01-27T04:00:30.573Z,4.67
2019-01-27T04:02:59.187Z,4.17
2019-01-27T04:05:27.733Z,5.03
2019-01-27T04:07:56.277Z,3.90
2019-01-27T04:10:24.836Z,2.90
2019-01-27T04:12:53.407Z,4.03
2019-01-27T04:15:21.939Z,4.20
2019-01-27T04:17:50.488Z,5.30
2019-01-27T04:20:19.534Z,3.70
2019-01-27T04:22:48.154Z,3.37
2019-01-27T04:25:17.089Z,4.30
2019-01-27T04:27:45.695Z,3.70
2019-01-27T04:30:20.146Z,3.20
2019-01-27T04:32:48.726Z,3.30
2019-01-27T04:35:17.309Z,4.30
2019-01-27T04:37:45.874Z,3.80
2019-01-27T04:40:15.750Z,3.57
2019-01-27T04:42:44.289Z,4.27
2019-01-27T04:45:13.313Z,4.30
2019-01-27T04:47:41.908Z,3.93
2019-01-27T04:50:11.314Z,3.43
2019-01-27T04:52:39.842Z,3.67
2019-01-27T04:55:09.014Z,6.97
2019-01-27T04:57:37.557Z,4.23
2019-01-27T05:00:07.472Z,3.30
2019-01-27T05:02:40.819Z,3.13
2019-01-27T05:05:09.524Z,3.47
2019-01-27T05:07:38.070Z,3.33
2019-01-27T05:10:06.690Z,2.80
2019-01-27T05:12:35.234Z,3.20
2019-01-27T05:15:04.612Z,4.37
2019-01-27T05:17:33.222Z,3.33
2019-01-27T05:20:01.826Z,3.30
2019-01-27T05:22:30.430Z,4.57
2019-01-27T05:24:59.005Z,3.50
2019-01-27T05:27:27.561Z,4.33
2019-01-27T05:29:56.097Z,3.50
2019-01-27T05:32:24.661Z,5.03
2019-01-27T05:34:53.207Z,3.77
2019-01-27T05:37:21.766Z,3.90
2019-01-27T05:39:50.355Z,3.33
2019-01-27T05:42:18.897Z,3.50
2019-01-27T05:44:47.463Z,3.80
2019-01-27T05:47:16.090Z,3.00
2019-01-27T05:49:44.661Z,4.37
2019-01-27T05:52:13.203Z,8.13
2019-01-27T05:54:41.730Z,5.97
2019-01-27T05:57:10.308Z,7.80
2019-01-27T05:59:38.843Z,3.37
2019-01-27T06:02:07.434Z,4.37
2019-01-27T06:04:35.979Z,4.47
2019-01-27T06:07:04.519Z,5.00
2019-01-27T06:09:33.094Z,5.60
2019-01-27T06:12:01.614Z,8.57
2019-01-27T06:14:30.212Z,9.47
2019-01-27T06:16:58.798Z,6.13
2019-01-27T06:19:27.385Z,6.50
2019-01-27T06:21:55.929Z,4.33
2019-01-27T06:24:24.532Z,5.50
2019-01-27T06:26:53.089Z,5.43
2019-01-27T06:29:21.673Z,4.77
2019-01-27T06:31:50.210Z,6.17
2019-01-27T06:34:20.130Z,5.50
2019-01-27T06:36:48.709Z,5.90
2019-01-27T06:39:17.257Z,3.80
2019-01-27T06:41:45.801Z,5.17
2019-01-27T06:44:14.356Z,4.83
2019-01-27T06:46:42.882Z,5.07
2019-01-27T06:49:11.444Z,4.73
2019-01-27T06:51:40.005Z,4.17
2019-01-27T06:54:08.558Z,3.97
2019-01-27T06:56:37.111Z,6.07
2019-01-27T06:59:24.709Z,5.83
2019-01-27T07:02:06.581Z,3.93
2019-01-27T07:04:53.699Z,4.33
2019-01-27T07:07:53.658Z,3.90
2019-01-27T07:10:50.227Z,5.67
2019-01-27T07:13:49.750Z,4.03
2019-01-27T07:16:28.517Z,4.90
2019-01-27T07:19:07.830Z,6.30
2019-01-27T07:21:53.143Z,9.67
2019-01-27T07:24:40.722Z,5.43
2019-01-27T07:27:46.202Z,4.77
2019-01-27T07:30:36.689Z,5.03
2019-01-27T07:33:22.922Z,4.63
2019-01-27T07:36:13.311Z,6.13
2019-01-27T07:38:59.401Z,4.20
2019-01-27T07:41:38.821Z,9.17
2019-01-27T07:44:21.778Z,4.67
2019-01-27T07:47:01.684Z,5.20
2019-01-27T07:50:01.554Z,5.50
2019-01-27T07:52:49.283Z,6.07
2019-01-27T07:55:48.926Z,4.67
2019-01-27T07:58:27.450Z,5.90
2019-01-27T08:01:16.125Z,6.53
2019-01-27T08:04:12.988Z,6.13
2019-01-27T08:06:58.782Z,5.80
2019-01-27T08:09:37.077Z,5.70
2019-01-27T08:12:30.988Z,7.23
2019-01-27T08:15:11.190Z,8.47
2019-01-27T08:17:58.807Z,10.03
2019-01-27T08:20:55.411Z,12.00
2019-01-27T08:23:55.192Z,6.33
2019-01-27T08:26:33.155Z,7.40
2019-01-27T08:29:09.988Z,6.27
2019-01-27T08:31:51.062Z,6.37
2019-01-27T08:34:47.754Z,7.57
2019-01-27T08:37:38.019Z,6.20
2019-01-27T08:40:27.746Z,7.77
2019-01-27T08:43:13.825Z,8.53
2019-01-27T08:45:47.089Z,7.20
2019-01-27T08:48:15.670Z,8.87
2019-01-27T08:50:44.278Z,9.23
2019-01-27T08:53:12.854Z,5.67
2019-01-27T08:55:41.417Z,6.30
2019-01-27T08:58:09.994Z,8.27
2019-01-27T09:00:39.649Z,7.33
2019-01-27T09:03:27.265Z,9.17
2019-01-27T09:06:03.642Z,8.03
2019-01-27T09:08:51.251Z,9.73
2019-01-27T09:11:41.686Z,5.83
2019-01-27T09:14:29.296Z,6.83
2019-01-27T09:17:15.394Z,4.97
2019-01-27T09:20:01.694Z,6.37
2019-01-27T09:23:04.622Z,4.47
2019-01-27T09:25:52.303Z,5.20
2019-01-27T09:28:28.426Z,4.97
2019-01-27T09:31:19.019Z,6.30
2019-01-27T09:34:12.994Z,4.77
2019-01-27T09:37:11.169Z,5.33
2019-01-27T09:39:56.746Z,4.67
2019-01-27T09:43:02.568Z,6.23
2019-01-27T09:45:40.467Z,5.00
2019-01-27T09:48:40.110Z,6.17
2019-01-27T09:51:32.765Z,5.50
2019-01-27T09:54:20.384Z,5.63
2019-01-27T09:57:19.933Z,5.73
2019-01-27T09:59:57.628Z,6.20
2019-01-27T10:02:48.067Z,5.97
2019-01-27T10:05:38.288Z,9.07
2019-01-27T10:08:16.393Z,6.07
2019-01-27T10:11:02.643Z,5.83
2019-01-27T10:13:52.994Z,5.87
2019-01-27T10:16:39.006Z,7.83
2019-01-27T10:19:32.793Z,5.47
2019-01-27T10:25:02.889Z,5.10
2019-01-27T10:27:41.644Z,6.23
2019-01-27T10:30:32.205Z,5.23
2019-01-27T10:33:20.226Z,6.27
2019-01-27T10:36:11.138Z,9.87
2019-01-27T10:38:51.465Z,6.40
2019-01-27T10:41:34.098Z,6.67
2019-01-27T10:44:25.089Z,7.07
2019-01-27T10:47:03.010Z,8.50
2019-01-27T10:49:43.650Z,7.50
2019-01-27T10:52:29.458Z,7.17
2019-01-27T10:55:17.452Z,6.83
2019-01-27T10:58:13.007Z,8.67
2019-01-27T11:00:51.494Z,6.93
2019-01-27T11:03:42.096Z,6.60
2019-01-27T11:06:19.590Z,7.03
2019-01-27T11:09:16.598Z,7.23
2019-01-27T11:12:19.510Z,6.93
2019-01-27T11:15:07.546Z,7.83
2019-01-27T11:17:44.682Z,7.23
2019-01-27T11:20:19.922Z,7.63
2019-01-27T11:22:58.824Z,7.43
2019-01-27T11:25:45.579Z,9.27
2019-01-27T11:28:33.570Z,6.30
2019-01-27T11:31:19.862Z,8.07
2019-01-27T11:33:57.199Z,8.90
2019-01-27T11:37:00.315Z,7.57
2019-01-27T11:39:54.363Z,8.10
2019-01-27T11:42:36.552Z,6.93
2019-01-27T11:45:17.547Z,6.13
2019-01-27T11:48:08.562Z,11.63
2019-01-27T11:50:48.077Z,6.17
2019-01-27T11:53:17.151Z,6.73
2019-01-27T11:55:46.221Z,6.30
2019-01-27T11:58:15.258Z,7.30
2019-01-27T12:00:48.358Z,6.57
2019-01-27T12:03:17.990Z,6.80
2019-01-27T12:05:47.038Z,7.97
2019-01-27T12:08:16.029Z,5.47
2019-01-27T12:10:45.192Z,6.60
2019-01-27T12:13:14.257Z,4.90
2019-01-27T12:15:43.228Z,6.33
2019-01-27T12:18:12.278Z,3.43
2019-01-27T12:20:41.368Z,2.30
2019-01-27T12:23:10.453Z,3.10
2019-01-27T12:25:39.503Z,1.73
2019-01-27T12:28:08.502Z,1.87
2019-01-27T12:30:37.559Z,2.00
2019-01-27T12:33:06.591Z,3.27
2019-01-27T12:35:35.657Z,5.17
2019-01-27T12:38:04.791Z,4.67
2019-01-27T12:40:33.813Z,3.10
2019-01-27T12:43:02.893Z,6.07
2019-01-27T12:45:31.958Z,8.10
2019-01-27T12:48:01.007Z,7.37
2019-01-27T12:50:30.205Z,2.33
2019-01-27T12:52:59.239Z,3.87
2019-01-27T12:55:28.376Z,3.93
2019-01-27T12:57:57.387Z,6.57
2019-01-27T13:00:33.117Z,4.80
2019-01-27T13:03:02.327Z,6.43
2019-01-27T13:05:32.070Z,3.23
2019-01-27T13:08:01.214Z,2.53
2019-01-27T13:10:30.300Z,4.00
2019-01-27T13:12:59.486Z,4.00
2019-01-27T13:15:28.588Z,3.27
2019-01-27T13:17:57.742Z,5.60
2019-01-27T13:20:26.817Z,7.33
2019-01-27T13:22:56.993Z,4.20
2019-01-27T13:25:26.107Z,4.17
2019-01-27T13:28:14.309Z,6.50
2019-01-27T13:30:44.327Z,5.40
2019-01-27T13:33:14.920Z,8.30
2019-01-27T13:35:43.962Z,6.67
2019-01-27T13:38:13.026Z,4.37
2019-01-27T13:40:42.200Z,5.13
2019-01-27T13:43:11.279Z,5.80
2019-01-27T13:45:40.417Z,11.90
2019-01-27T13:48:09.479Z,4.83
2019-01-27T13:50:38.506Z,5.57
2019-01-27T13:53:09.143Z,9.20
2019-01-27T13:55:38.191Z,7.03
2019-01-27T13:58:07.285Z,6.13
2019-01-27T14:00:37.302Z,7.83
2019-01-27T14:03:06.395Z,7.87
2019-01-27T14:05:35.450Z,8.87
2019-01-27T14:08:04.527Z,9.60
2019-01-27T14:10:33.631Z,8.40
2019-01-27T14:13:02.590Z,13.63
2019-01-27T14:15:33.206Z,11.77
2019-01-27T14:18:02.295Z,11.70
2019-01-27T14:20:31.361Z,5.17
2019-01-27T14:23:00.401Z,10.63
2019-01-27T14:25:30.012Z,12.10
2019-01-27T14:27:58.982Z,11.83
2019-01-27T14:30:33.478Z,13.70
2019-01-27T14:33:02.794Z,6.03
2019-01-27T14:35:31.886Z,6.10
2019-01-27T14:38:01.217Z,10.13
2019-01-27T14:40:30.330Z,5.87
2019-01-27T14:43:00.809Z,11.10
2019-01-27T14:45:30.357Z,7.40
2019-01-27T14:47:59.519Z,11.17
2019-01-27T14:50:48.462Z,15.47
2019-01-27T14:53:17.537Z,13.47
2019-01-27T14:55:46.622Z,14.63
2019-01-27T14:58:15.690Z,6.27
2019-01-27T15:00:45.071Z,13.07
2019-01-27T15:03:14.838Z,9.37
2019-01-27T15:05:43.998Z,8.17
2019-01-27T15:08:13.199Z,7.00
2019-01-27T15:10:43.331Z,6.97
2019-01-27T15:13:12.438Z,6.90
2019-01-27T15:15:41.414Z,14.60
2019-01-27T15:18:10.449Z,12.37
2019-01-27T15:20:51.591Z,9.60
2019-01-27T15:23:20.611Z,10.87
2019-01-27T15:25:49.677Z,14.33
2019-01-27T15:28:18.782Z,9.87
2019-01-27T15:30:47.914Z,9.83
2019-01-27T15:33:16.878Z,5.97
2019-01-27T15:35:45.968Z,10.90
2019-01-27T15:38:14.954Z,5.10
2019-01-27T15:40:43.909Z,8.63
2019-01-27T15:43:12.899Z,12.00
2019-01-27T15:45:41.862Z,3.13
2019-01-27T15:48:10.903Z,3.97
2019-01-27T15:50:39.975Z,2.37
2019-01-27T15:53:09.013Z,2.57
2019-01-27T15:55:38.345Z,3.60
2019-01-27T15:58:07.442Z,8.10
2019-01-27T16:00:39.554Z,6.13
2019-01-27T16:03:08.669Z,3.27
2019-01-27T16:05:37.768Z,67.37
2019-01-27T16:08:06.817Z,16.33
2019-01-27T16:10:35.865Z,7.47
2019-01-27T16:13:04.946Z,9.03
2019-01-27T16:15:34.564Z,9.07
2019-01-27T16:18:03.683Z,19.10
2019-01-27T16:20:32.694Z,10.37
2019-01-27T16:23:23.382Z,10.80
2019-01-27T16:25:52.457Z,11.27
2019-01-27T16:28:21.572Z,17.07
2019-01-27T16:31:19.113Z,9.57
2019-01-27T16:33:52.951Z,4.43
2019-01-27T16:36:22.022Z,5.03
2019-01-27T16:38:51.091Z,22.87
2019-01-27T16:41:20.139Z,9.37
2019-01-27T16:43:49.337Z,26.37
2019-01-27T16:46:18.430Z,16.70
2019-01-27T16:48:47.483Z,25.00
2019-01-27T16:51:16.571Z,10.97
2019-01-27T16:53:45.702Z,16.97
2019-01-27T16:56:14.785Z,3.77
2019-01-27T16:58:43.907Z,22.60
2019-01-27T17:01:13.022Z,18.10
2019-01-27T17:03:43.155Z,20.73
2019-01-27T17:06:12.271Z,8.60
2019-01-27T17:08:41.326Z,13.43
2019-01-27T17:11:10.311Z,26.17
2019-01-27T17:13:39.418Z,15.53
2019-01-27T17:16:08.639Z,20.73
2019-01-27T17:18:39.169Z,69.33
2019-01-27T17:21:08.292Z,125.13
2019-01-27T17:23:37.322Z,123.03
2019-01-27T17:26:06.406Z,109.23
2019-01-27T17:28:35.654Z,26.17
2019-01-27T17:31:04.755Z,14.20
2019-01-27T17:33:33.817Z,38.97
2019-01-27T17:36:02.883Z,13.80
2019-01-27T17:38:31.964Z,18.80
2019-01-27T17:41:00.589Z,9.10
2019-01-27T17:43:29.146Z,6.23
2019-01-27T17:45:57.714Z,11.57
2019-01-27T17:48:26.297Z,4.80
2019-01-27T17:50:54.894Z,11.70
2019-01-27T17:53:23.511Z,16.00
2019-01-27T17:55:52.049Z,20.73
2019-01-27T17:58:41.044Z,12.20
2019-01-27T18:01:28.265Z,6.47
2019-01-27T18:04:03.459Z,12.10
2019-01-27T18:06:38.565Z,15.80
2019-01-27T18:09:32.948Z,8.60
2019-01-27T18:12:10.349Z,11.07
2019-01-27T18:14:40.080Z,6.60
2019-01-27T18:17:08.644Z,13.10
2019-01-27T18:19:37.175Z,9.80
2019-01-27T18:22:05.752Z,13.30
2019-01-27T18:24:34.369Z,12.43
2019-01-27T18:27:02.901Z,10.47
2019-01-27T18:29:31.767Z,22.63
2019-01-27T18:32:00.318Z,5.03
2019-01-27T18:34:28.852Z,7.50
2019-01-27T18:36:57.435Z,10.07
2019-01-27T18:39:25.987Z,17.03
2019-01-27T18:41:54.552Z,8.60
2019-01-27T18:44:23.148Z,9.50
2019-01-27T18:46:51.677Z,11.30
2019-01-27T18:49:20.218Z,11.23
2019-01-27T18:51:48.789Z,6.27
2019-01-27T18:57:38.273Z,6.47
2019-01-27T19:00:22.921Z,7.47
2019-01-27T19:03:29.175Z,4.27
2019-01-27T19:06:26.180Z,5.17
2019-01-27T19:09:11.138Z,7.17
2019-01-27T19:12:01.861Z,11.63
2019-01-27T19:14:56.118Z,7.07
2019-01-27T19:17:46.989Z,3.10
2019-01-27T19:20:22.981Z,7.20
2019-01-27T19:23:00.461Z,6.57
2019-01-27T19:25:51.670Z,4.37
2019-01-27T19:28:29.893Z,10.77
2019-01-27T19:31:17.919Z,7.00
2019-01-27T19:34:05.918Z,3.10
2019-01-27T19:36:57.002Z,7.43
2019-01-27T19:40:00.201Z,3.83
2019-01-27T19:43:06.312Z,3.87
2019-01-27T19:45:50.976Z,5.90
2019-01-27T19:48:29.534Z,3.70
2019-01-27T19:51:17.564Z,8.03
2019-01-27T19:54:04.573Z,4.30
2019-01-27T19:56:51.502Z,7.37
2019-01-27T19:59:39.549Z,7.47
2019-01-27T20:02:31.131Z,5.10
2019-01-27T20:05:19.173Z,10.07
2019-01-27T20:08:13.002Z,8.30
2019-01-27T20:11:04.674Z,14.40
2019-01-27T20:13:55.442Z,9.90
2019-01-27T20:16:46.394Z,4.43
2019-01-27T20:19:23.270Z,9.77
2019-01-27T20:22:11.399Z,5.30
2019-01-27T20:24:52.062Z,9.67
2019-01-27T20:27:38.792Z,11.07
2019-01-27T20:30:37.808Z,8.53
2019-01-27T20:33:27.806Z,6.47
2019-01-27T20:36:11.077Z,5.90
2019-01-27T20:38:47.580Z,5.60
2019-01-27T20:41:24.141Z,11.87
2019-01-27T20:44:11.994Z,3.33
2019-01-27T20:47:02.635Z,2.63
2019-01-27T20:49:56.799Z,4.27
2019-01-27T20:52:37.886Z,4.87
2019-01-27T20:55:38.817Z,4.97
2019-01-27T20:58:25.521Z,9.23
2019-01-27T21:01:22.109Z,7.57
2019-01-27T21:04:08.922Z,3.80
2019-01-27T21:06:55.178Z,6.73
2019-01-27T21:09:45.885Z,8.93
2019-01-27T21:12:52.020Z,3.97
2019-01-27T21:15:48.894Z,2.83
2019-01-27T21:18:25.399Z,8.57
2019-01-27T21:20:54.494Z,7.13
2019-01-27T21:23:23.481Z,5.53
2019-01-27T21:25:52.453Z,5.13
2019-01-27T21:28:21.525Z,10.23
2019-01-27T21:30:50.485Z,4.83
2019-01-27T21:33:19.866Z,8.13
2019-01-27T21:35:48.936Z,5.47
2019-01-27T21:38:17.983Z,6.20
2019-01-27T21:40:47.074Z,5.30
2019-01-27T21:43:16.043Z,7.13
2019-01-27T21:45:45.093Z,6.50
2019-01-27T21:48:14.223Z,3.30
2019-01-27T21:50:43.277Z,8.20
2019-01-27T21:53:12.318Z,4.80
2019-01-27T21:55:41.395Z,4.93
2019-01-27T21:58:10.457Z,6.70
2019-01-27T22:00:39.510Z,10.77
2019-01-27T22:03:08.578Z,3.37
2019-01-27T22:05:37.623Z,9.70
2019-01-27T22:08:06.673Z,6.10
2019-01-27T22:10:35.731Z,3.17
2019-01-27T22:13:04.798Z,7.90
2019-01-27T22:15:33.767Z,8.03
2019-01-27T22:18:02.823Z,6.50
2019-01-27T22:20:31.947Z,3.50
2019-01-27T22:23:01.025Z,2.80
2019-01-27T22:25:30.146Z,5.63
2019-01-27T22:27:59.254Z,4.97
2019-01-27T22:30:28.295Z,3.87
2019-01-27T22:32:57.366Z,6.57
2019-01-27T22:35:26.544Z,6.77
2019-01-27T22:37:55.614Z,6.63
2019-01-27T22:40:24.646Z,6.03
2019-01-27T22:42:53.726Z,7.23
2019-01-27T22:45:22.762Z,3.73
2019-01-27T22:47:51.822Z,4.63
2019-01-27T22:50:20.887Z,8.80
2019-01-27T22:52:49.972Z,6.00
2019-01-27T22:55:19.083Z,7.23
2019-01-27T22:57:48.142Z,4.67
2019-01-27T23:00:51.757Z,8.33
2019-01-27T23:03:20.749Z,6.40
2019-01-27T23:05:49.834Z,5.83
2019-01-27T23:08:18.847Z,6.97
2019-01-27T23:10:47.783Z,4.40
2019-01-27T23:13:16.810Z,5.13
2019-01-27T23:15:45.778Z,5.13
2019-01-27T23:18:15.158Z,4.57
2019-01-27T23:20:44.211Z,4.63
2019-01-27T23:23:13.195Z,3.43
2019-01-27T23:25:42.385Z,7.00
2019-01-27T23:28:11.434Z,6.70
2019-01-27T23:30:40.475Z,5.20
2019-01-27T23:33:09.569Z,5.60
2019-01-27T23:35:38.534Z,5.77
2019-01-27T23:38:07.582Z,2.50
2019-01-27T23:40:36.659Z,5.93
2019-01-27T23:43:05.714Z,2.17
2019-01-27T23:45:34.749Z,3.43
2019-01-27T23:48:03.931Z,1.23
2019-01-27T23:50:32.918Z,2.10
2019-01-27T23:53:02.000Z,4.40
2019-01-27T23:55:30.982Z,2.53
2019-01-27T23:58:00.009Z,1.80
